Evviva — ZGDW4 — position and weather

sailwx.info

Track history (hours):
 
Tides and Currents Weather Stations Pressure Air Temp Water Temp Dewpoint Dewpoint Depression Visibility Wind Speed Wind Dir Waves Ship Positions

Evviva

Last reported at 2018-Jun-04 19:07 UTC. Time now 2018-Jun-22 09:09 UTC.
Position N 54°35' W 130°34'.
Warning: this ship's position is 17 days out of date.

Length 50 m; draft 2.4 m.

Type: Pleasure craft. MMSI: 319063600.

Date/timePositionNaut miles runAvg speedWind from/ knotsBaromVisibWave heightAir tempDewpointWater temp
2018-Jun-04 19:07N 54°35' W 130°34'214.2
2018-Jun-04 18:58N 54°33' W 130°34'613.9
2018-Jun-04 18:30N 54°27' W 130°33'714.0
2018-Jun-04 18:00N 54°20' W 130°34'713.6
2018-Jun-04 17:30N 54°14' W 130°27'4 7.6
2018-Jun-04 17:00N 54°17' W 130°22'3 5.3
2018-Jun-04 16:30N 54°19' W 130°19'0 0.0
2018-Jun-04 15:59N 54°19' W 130°19'0 0.0
2018-Jun-04 15:29N 54°19' W 130°19'0 0.0
2018-Jun-04 14:59N 54°19' W 130°19'0 0.0
2018-Jun-04 14:23N 54°19' W 130°19'0 0.0
2018-Jun-04 13:59N 54°19' W 130°19'0 0.0
2018-Jun-04 13:26N 54°19' W 130°19'0 0.0
2018-Jun-04 12:59N 54°19' W 130°19'0 0.0
2018-Jun-04 12:29N 54°19' W 130°19'0 0.0
2018-Jun-04 11:59N 54°19' W 130°19'0 0.0
2018-Jun-04 11:29N 54°19' W 130°19'0 0.0
2018-Jun-04 10:59N 54°19' W 130°19'0 0.0
2018-Jun-04 10:29N 54°19' W 130°19'0 0.0
2018-Jun-04 09:59N 54°19' W 130°19'0 0.0
2018-Jun-04 09:29N 54°19' W 130°19'0 0.0
2018-Jun-04 08:59N 54°19' W 130°19'0 0.0
2018-Jun-04 08:29N 54°19' W 130°19'0 0.0
2018-Jun-04 07:59N 54°19' W 130°19'0 0.0
2018-Jun-04 07:29N 54°19' W 130°19'0 0.0
2018-Jun-04 06:59N 54°19' W 130°19'0 0.0
2018-Jun-04 06:26N 54°19' W 130°19'0 0.0
2018-Jun-04 05:53N 54°19' W 130°19'0 0.0
2018-Jun-04 05:29N 54°19' W 130°19'0 0.0
2018-Jun-04 04:59N 54°19' W 130°19'0 0.0
2018-Jun-04 04:29N 54°19' W 130°19'0 0.0
2018-Jun-04 03:59N 54°19' W 130°19'0 0.0
2018-Jun-04 03:29N 54°19' W 130°19'0 0.0
2018-Jun-04 02:59N 54°19' W 130°19'0 0.0
2018-Jun-04 02:29N 54°19' W 130°19'0 0.0
2018-Jun-04 01:56N 54°19' W 130°19'0 0.0
2018-Jun-04 01:26N 54°19' W 130°19'0 0.0
2018-Jun-04 00:59N 54°19' W 130°19'0 0.0
2018-Jun-04 00:29N 54°19' W 130°19'0 0.0
2018-Jun-03 23:59N 54°19' W 130°19'0 0.0
2018-Jun-03 23:29N 54°19' W 130°19'0 0.0
2018-Jun-03 22:59N 54°19' W 130°19'0 0.0
2018-Jun-03 22:29N 54°19' W 130°19'0 0.0
2018-Jun-03 21:59N 54°19' W 130°19'0 0.0
2018-Jun-03 21:29N 54°19' W 130°19'0 0.0
2018-Jun-03 20:59N 54°19' W 130°19'0 0.0
2018-Jun-03 20:30N 54°19' W 130°19'3 5.7
2018-Jun-03 20:00N 54°17' W 130°22'713.3
2018-Jun-03 19:30N 54°10' W 130°21'714.5
2018-Jun-03 19:00N 54°04' W 130°16'714.7
2018-Jun-03 18:30N 53°57' W 130°11'612.9
2018-Jun-03 18:00N 53°52' W 130°04'  
2018-May-31 22:14N 52°15' W 128°29'415.3
2018-May-31 21:58N 52°15' W 128°22'715.3
2018-May-31 21:30N 52°14' W 128°11'4 7.4
2018-May-31 21:00N 52°10' W 128°08'3 0.2
2018-May-31 10:12N 52°09' W 128°05'1 0.1
2018-May-30 21:36N 52°10' W 128°06'1 6.0
2018-May-30 21:25N 52°11' W 128°07'6 0.8
2018-May-30 14:19N 52°13' W 128°16'310.6
2018-May-30 14:00N 52°13' W 128°10'5 9.4
2018-May-30 13:30N 52°09' W 128°06'1 0.4
2018-May-30 11:25N 52°09' W 128°05'0 0.0
2018-May-30 10:55N 52°09' W 128°05'0 0.0
2018-May-30 10:16N 52°09' W 128°05'0 0.0
2018-May-30 09:01N 52°09' W 128°05'0 0.0
2018-May-30 08:37N 52°09' W 128°05'0 0.0
2018-May-30 08:22N 52°09' W 128°05'0 0.0
2018-May-30 07:58N 52°09' W 128°05'0 0.0
2018-May-30 07:13N 52°09' W 128°05'0 0.0
2018-May-30 06:40N 52°09' W 128°05'1 0.1
2018-May-29 21:08N 52°10' W 128°03'3 8.4
2018-May-29 20:43N 52°10' W 127°58'1 0.0
2018-May-28 19:11N 52°10' W 127°59'3 8.5
2018-May-28 18:53N 52°10' W 128°03'1 0.1
2018-May-28 07:33N 52°09' W 128°05'0 0.0
2018-May-28 07:27N 52°09' W 128°05'0 0.0
2018-May-28 07:00N 52°09' W 128°05'0 0.0
2018-May-28 04:48N 52°09' W 128°05'0 0.0
2018-May-28 04:30N 52°09' W 128°05'0 0.0
2018-May-27 16:36N 52°09' W 128°05'0 0.0
2018-May-27 11:24N 52°09' W 128°05'0 0.1
2018-May-27 11:00N 52°09' W 128°05'0 0.0
2018-May-27 09:24N 52°09' W 128°05'0 0.0
2018-May-27 08:15N 52°09' W 128°05'0 0.0
2018-May-27 06:54N 52°09' W 128°05'0 0.1
2018-May-27 06:30N 52°09' W 128°05'0 0.0
2018-May-26 17:43N 52°09' W 128°05'2 6.1
2018-May-26 17:28N 52°10' W 128°07'4 9.3
2018-May-26 17:00N 52°06' W 128°07'713.9
2018-May-26 16:30N 52°04' W 127°56'815.8
2018-May-26 16:00N 51°56' W 127°57'815.9
2018-May-26 15:30N 51°48' W 127°59'714.5
2018-May-26 15:00N 51°42' W 128°04'3 6.2
2018-May-26 14:31N 51°39' W 128°07'0 0.0
2018-May-26 14:00N 51°39' W 128°07'0 0.0
2018-May-26 13:30N 51°39' W 128°07'0 0.0
2018-May-26 13:00N 51°39' W 128°07'0 0.0
2018-May-26 12:31N 51°39' W 128°07'0 0.0
2018-May-26 12:00N 51°39' W 128°07'0 0.0
2018-May-26 11:31N 51°39' W 128°07'0 0.0
2018-May-26 11:00N 51°39' W 128°07'0 0.0
2018-May-26 10:29N 51°39' W 128°07'0 0.0
2018-May-26 10:00N 51°39' W 128°07'0 0.0
2018-May-26 09:30N 51°39' W 128°07'0 0.0
2018-May-26 09:00N 51°39' W 128°07'0 0.0
2018-May-26 08:30N 51°39' W 128°07'0 0.0
2018-May-26 08:00N 51°39' W 128°07'0 0.0
2018-May-26 07:30N 51°39' W 128°07'0 0.0
2018-May-26 07:00N 51°39' W 128°07'0 0.0
2018-May-26 06:31N 51°39' W 128°07'0 0.0
2018-May-26 05:30N 51°39' W 128°07'0 0.0
2018-May-26 05:01N 51°39' W 128°07'0 0.0
2018-May-26 04:30N 51°39' W 128°07'0 0.0
2018-May-26 04:00N 51°39' W 128°07'0 0.0
2018-May-26 03:30N 51°39' W 128°07'0 0.0
2018-May-26 03:00N 51°39' W 128°07'0 0.0
2018-May-26 02:30N 51°39' W 128°07'0 0.0
2018-May-26 02:00N 51°39' W 128°07'0 0.0
2018-May-26 01:31N 51°39' W 128°07'0 0.0
2018-May-26 01:00N 51°39' W 128°07'0 0.0
2018-May-26 00:30N 51°39' W 128°07'0 0.0
2018-May-26 00:00N 51°39' W 128°07'0 0.0
2018-May-25 23:30N 51°39' W 128°07'0 0.0
2018-May-25 23:00N 51°39' W 128°07'0 0.0
2018-May-25 22:30N 51°39' W 128°07'0 0.1
2018-May-25 22:00N 51°39' W 128°07'0 0.0
2018-May-25 21:30N 51°39' W 128°07'0 0.1
2018-May-25 21:00N 51°39' W 128°07'0 0.1
2018-May-25 20:30N 51°39' W 128°07'0 0.1
2018-May-25 20:01N 51°39' W 128°07'0 0.0
2018-May-25 19:31N 51°39' W 128°07'  
Track history (hours):
 
Tides and Currents Weather Stations Pressure Air Temp Water Temp Dewpoint Dewpoint Depression Visibility Wind Speed Wind Dir Waves Ship Positions

Evviva

Last reported at 2018-Jun-04 19:07 UTC. Time now 2018-Jun-22 09:09 UTC.
Position N 54°35' W 130°34'.
Warning: this ship's position is 17 days out of date.

Length 50 m; draft 2.4 m.

Type: Pleasure craft. MMSI: 319063600.

Date/timePositionNaut miles runAvg speedWind from/ knotsBaromVisibWave heightAir tempDewpointWater temp
2018-Jun-04 19:07N 54°35' W 130°34'214.2
2018-Jun-04 18:58N 54°33' W 130°34'613.9
2018-Jun-04 18:30N 54°27' W 130°33'714.0
2018-Jun-04 18:00N 54°20' W 130°34'713.6
2018-Jun-04 17:30N 54°14' W 130°27'4 7.6
2018-Jun-04 17:00N 54°17' W 130°22'3 5.3
2018-Jun-04 16:30N 54°19' W 130°19'0 0.0
2018-Jun-04 15:59N 54°19' W 130°19'0 0.0
2018-Jun-04 15:29N 54°19' W 130°19'0 0.0
2018-Jun-04 14:59N 54°19' W 130°19'0 0.0
2018-Jun-04 14:23N 54°19' W 130°19'0 0.0
2018-Jun-04 13:59N 54°19' W 130°19'0 0.0
2018-Jun-04 13:26N 54°19' W 130°19'0 0.0
2018-Jun-04 12:59N 54°19' W 130°19'0 0.0
2018-Jun-04 12:29N 54°19' W 130°19'0 0.0
2018-Jun-04 11:59N 54°19' W 130°19'0 0.0
2018-Jun-04 11:29N 54°19' W 130°19'0 0.0
2018-Jun-04 10:59N 54°19' W 130°19'0 0.0
2018-Jun-04 10:29N 54°19' W 130°19'0 0.0
2018-Jun-04 09:59N 54°19' W 130°19'0 0.0
2018-Jun-04 09:29N 54°19' W 130°19'0 0.0
2018-Jun-04 08:59N 54°19' W 130°19'0 0.0
2018-Jun-04 08:29N 54°19' W 130°19'0 0.0
2018-Jun-04 07:59N 54°19' W 130°19'0 0.0
2018-Jun-04 07:29N 54°19' W 130°19'0 0.0
2018-Jun-04 06:59N 54°19' W 130°19'0 0.0
2018-Jun-04 06:26N 54°19' W 130°19'0 0.0
2018-Jun-04 05:53N 54°19' W 130°19'0 0.0
2018-Jun-04 05:29N 54°19' W 130°19'0 0.0
2018-Jun-04 04:59N 54°19' W 130°19'0 0.0
2018-Jun-04 04:29N 54°19' W 130°19'0 0.0
2018-Jun-04 03:59N 54°19' W 130°19'0 0.0
2018-Jun-04 03:29N 54°19' W 130°19'0 0.0
2018-Jun-04 02:59N 54°19' W 130°19'0 0.0
2018-Jun-04 02:29N 54°19' W 130°19'0 0.0
2018-Jun-04 01:56N 54°19' W 130°19'0 0.0
2018-Jun-04 01:26N 54°19' W 130°19'0 0.0
2018-Jun-04 00:59N 54°19' W 130°19'0 0.0
2018-Jun-04 00:29N 54°19' W 130°19'0 0.0
2018-Jun-03 23:59N 54°19' W 130°19'0 0.0
2018-Jun-03 23:29N 54°19' W 130°19'0 0.0
2018-Jun-03 22:59N 54°19' W 130°19'0 0.0
2018-Jun-03 22:29N 54°19' W 130°19'0 0.0
2018-Jun-03 21:59N 54°19' W 130°19'0 0.0
2018-Jun-03 21:29N 54°19' W 130°19'0 0.0
2018-Jun-03 20:59N 54°19' W 130°19'0 0.0
2018-Jun-03 20:30N 54°19' W 130°19'3 5.7
2018-Jun-03 20:00N 54°17' W 130°22'713.3
2018-Jun-03 19:30N 54°10' W 130°21'714.5
2018-Jun-03 19:00N 54°04' W 130°16'714.7
2018-Jun-03 18:30N 53°57' W 130°11'612.9
2018-Jun-03 18:00N 53°52' W 130°04'  
2018-May-31 22:14N 52°15' W 128°29'415.3
2018-May-31 21:58N 52°15' W 128°22'715.3
2018-May-31 21:30N 52°14' W 128°11'4 7.4
2018-May-31 21:00N 52°10' W 128°08'3 0.2
2018-May-31 10:12N 52°09' W 128°05'1 0.1
2018-May-30 21:36N 52°10' W 128°06'1 6.0
2018-May-30 21:25N 52°11' W 128°07'6 0.8
2018-May-30 14:19N 52°13' W 128°16'310.6
2018-May-30 14:00N 52°13' W 128°10'5 9.4
2018-May-30 13:30N 52°09' W 128°06'1 0.4
2018-May-30 11:25N 52°09' W 128°05'0 0.0
2018-May-30 10:55N 52°09' W 128°05'0 0.0
2018-May-30 10:16N 52°09' W 128°05'0 0.0
2018-May-30 09:01N 52°09' W 128°05'0 0.0
2018-May-30 08:37N 52°09' W 128°05'0 0.0
2018-May-30 08:22N 52°09' W 128°05'0 0.0
2018-May-30 07:58N 52°09' W 128°05'0 0.0
2018-May-30 07:13N 52°09' W 128°05'0 0.0
2018-May-30 06:40N 52°09' W 128°05'1 0.1
2018-May-29 21:08N 52°10' W 128°03'3 8.4
2018-May-29 20:43N 52°10' W 127°58'1 0.0
2018-May-28 19:11N 52°10' W 127°59'3 8.5
2018-May-28 18:53N 52°10' W 128°03'1 0.1
2018-May-28 07:33N 52°09' W 128°05'0 0.0
2018-May-28 07:27N 52°09' W 128°05'0 0.0
2018-May-28 07:00N 52°09' W 128°05'0 0.0
2018-May-28 04:48N 52°09' W 128°05'0 0.0
2018-May-28 04:30N 52°09' W 128°05'0 0.0
2018-May-27 16:36N 52°09' W 128°05'0 0.0
2018-May-27 11:24N 52°09' W 128°05'0 0.1
2018-May-27 11:00N 52°09' W 128°05'0 0.0
2018-May-27 09:24N 52°09' W 128°05'0 0.0
2018-May-27 08:15N 52°09' W 128°05'0 0.0
2018-May-27 06:54N 52°09' W 128°05'0 0.1
2018-May-27 06:30N 52°09' W 128°05'0 0.0
2018-May-26 17:43N 52°09' W 128°05'2 6.1
2018-May-26 17:28N 52°10' W 128°07'4 9.3
2018-May-26 17:00N 52°06' W 128°07'713.9
2018-May-26 16:30N 52°04' W 127°56'815.8
2018-May-26 16:00N 51°56' W 127°57'815.9
2018-May-26 15:30N 51°48' W 127°59'714.5
2018-May-26 15:00N 51°42' W 128°04'3 6.2
2018-May-26 14:31N 51°39' W 128°07'0 0.0
2018-May-26 14:00N 51°39' W 128°07'0 0.0
2018-May-26 13:30N 51°39' W 128°07'0 0.0
2018-May-26 13:00N 51°39' W 128°07'0 0.0
2018-May-26 12:31N 51°39' W 128°07'0 0.0
2018-May-26 12:00N 51°39' W 128°07'0 0.0
2018-May-26 11:31N 51°39' W 128°07'0 0.0
2018-May-26 11:00N 51°39' W 128°07'0 0.0
2018-May-26 10:29N 51°39' W 128°07'0 0.0
2018-May-26 10:00N 51°39' W 128°07'0 0.0
2018-May-26 09:30N 51°39' W 128°07'0 0.0
2018-May-26 09:00N 51°39' W 128°07'0 0.0
2018-May-26 08:30N 51°39' W 128°07'0 0.0
2018-May-26 08:00N 51°39' W 128°07'0 0.0
2018-May-26 07:30N 51°39' W 128°07'0 0.0
2018-May-26 07:00N 51°39' W 128°07'0 0.0
2018-May-26 06:31N 51°39' W 128°07'0 0.0
2018-May-26 05:30N 51°39' W 128°07'0 0.0
2018-May-26 05:01N 51°39' W 128°07'0 0.0
2018-May-26 04:30N 51°39' W 128°07'0 0.0
2018-May-26 04:00N 51°39' W 128°07'0 0.0
2018-May-26 03:30N 51°39' W 128°07'0 0.0
2018-May-26 03:00N 51°39' W 128°07'0 0.0
2018-May-26 02:30N 51°39' W 128°07'0 0.0
2018-May-26 02:00N 51°39' W 128°07'0 0.0
2018-May-26 01:31N 51°39' W 128°07'0 0.0
2018-May-26 01:00N 51°39' W 128°07'0 0.0
2018-May-26 00:30N 51°39' W 128°07'0 0.0
2018-May-26 00:00N 51°39' W 128°07'0 0.0
2018-May-25 23:30N 51°39' W 128°07'0 0.0
2018-May-25 23:00N 51°39' W 128°07'0 0.0
2018-May-25 22:30N 51°39' W 128°07'0 0.1
2018-May-25 22:00N 51°39' W 128°07'0 0.0
2018-May-25 21:30N 51°39' W 128°07'0 0.1
2018-May-25 21:00N 51°39' W 128°07'0 0.1
2018-May-25 20:30N 51°39' W 128°07'0 0.1
2018-May-25 20:01N 51°39' W 128°07'0 0.0
2018-May-25 19:31N 51°39' W 128°07'  

Dump ship's entire track history